sensor_id;sensor_type;location;lat;lon;timestamp;temperature;humidity
65824;SHT31;52585;47.566;19.056;2023-04-29T00:01:42;13.42;72.84
65824;SHT31;52585;47.566;19.056;2023-04-29T00:04:08;13.42;73.02
65824;SHT31;52585;47.566;19.056;2023-04-29T00:06:34;13.41;72.86
65824;SHT31;52585;47.566;19.056;2023-04-29T00:09:01;13.40;72.74
65824;SHT31;52585;47.566;19.056;2023-04-29T00:11:28;13.39;72.72
65824;SHT31;52585;47.566;19.056;2023-04-29T00:13:54;13.40;72.33
65824;SHT31;52585;47.566;19.056;2023-04-29T00:16:20;13.38;72.10
65824;SHT31;52585;47.566;19.056;2023-04-29T00:18:46;13.37;72.19
65824;SHT31;52585;47.566;19.056;2023-04-29T00:21:12;13.35;72.29
65824;SHT31;52585;47.566;19.056;2023-04-29T00:23:38;13.32;72.53
65824;SHT31;52585;47.566;19.056;2023-04-29T00:26:05;13.29;72.34
65824;SHT31;52585;47.566;19.056;2023-04-29T00:28:30;13.26;72.51
65824;SHT31;52585;47.566;19.056;2023-04-29T00:30:56;13.24;72.51
65824;SHT31;52585;47.566;19.056;2023-04-29T00:33:22;13.24;72.60
65824;SHT31;52585;47.566;19.056;2023-04-29T00:35:48;13.24;72.80
65824;SHT31;52585;47.566;19.056;2023-04-29T00:38:14;13.22;72.79
65824;SHT31;52585;47.566;19.056;2023-04-29T00:40:40;13.22;72.79
65824;SHT31;52585;47.566;19.056;2023-04-29T00:43:07;13.21;72.77
65824;SHT31;52585;47.566;19.056;2023-04-29T00:45:33;13.19;73.10
65824;SHT31;52585;47.566;19.056;2023-04-29T00:47:59;13.18;72.96
65824;SHT31;52585;47.566;19.056;2023-04-29T00:50:26;13.19;73.13
65824;SHT31;52585;47.566;19.056;2023-04-29T00:52:53;13.19;73.36
65824;SHT31;52585;47.566;19.056;2023-04-29T00:55:19;13.18;73.58
65824;SHT31;52585;47.566;19.056;2023-04-29T00:57:48;13.17;72.73
65824;SHT31;52585;47.566;19.056;2023-04-29T01:00:17;13.13;73.34
65824;SHT31;52585;47.566;19.056;2023-04-29T01:02:44;13.14;73.27
65824;SHT31;52585;47.566;19.056;2023-04-29T01:05:11;13.13;73.10
65824;SHT31;52585;47.566;19.056;2023-04-29T01:10:52;13.11;73.47
65824;SHT31;52585;47.566;19.056;2023-04-29T01:13:30;13.10;73.68
65824;SHT31;52585;47.566;19.056;2023-04-29T01:16:10;13.10;73.90
65824;SHT31;52585;47.566;19.056;2023-04-29T01:18:53;13.11;74.06
65824;SHT31;52585;47.566;19.056;2023-04-29T01:21:23;13.13;74.18
65824;SHT31;52585;47.566;19.056;2023-04-29T01:23:50;13.14;74.00
65824;SHT31;52585;47.566;19.056;2023-04-29T01:26:22;13.14;73.91
65824;SHT31;52585;47.566;19.056;2023-04-29T01:28:49;13.15;73.70
65824;SHT31;52585;47.566;19.056;2023-04-29T01:31:37;13.15;73.86
65824;SHT31;52585;47.566;19.056;2023-04-29T01:34:39;13.15;73.89
65824;SHT31;52585;47.566;19.056;2023-04-29T01:37:34;13.15;73.84
65824;SHT31;52585;47.566;19.056;2023-04-29T01:40:18;13.14;74.02
65824;SHT31;52585;47.566;19.056;2023-04-29T01:42:59;13.12;74.08
65824;SHT31;52585;47.566;19.056;2023-04-29T01:45:28;13.12;74.14
65824;SHT31;52585;47.566;19.056;2023-04-29T01:47:58;13.11;74.12
65824;SHT31;52585;47.566;19.056;2023-04-29T01:50:26;13.10;74.03
65824;SHT31;52585;47.566;19.056;2023-04-29T01:52:53;13.09;74.19
65824;SHT31;52585;47.566;19.056;2023-04-29T01:55:19;13.08;74.00
65824;SHT31;52585;47.566;19.056;2023-04-29T01:57:47;13.06;74.00
65824;SHT31;52585;47.566;19.056;2023-04-29T02:00:13;13.07;73.97
65824;SHT31;52585;47.566;19.056;2023-04-29T02:02:39;13.05;74.11
65824;SHT31;52585;47.566;19.056;2023-04-29T02:05:05;13.04;74.26
65824;SHT31;52585;47.566;19.056;2023-04-29T02:07:31;13.03;74.36
65824;SHT31;52585;47.566;19.056;2023-04-29T02:09:57;13.02;73.81
65824;SHT31;52585;47.566;19.056;2023-04-29T02:12:24;12.97;74.19
65824;SHT31;52585;47.566;19.056;2023-04-29T02:14:51;12.95;74.52
65824;SHT31;52585;47.566;19.056;2023-04-29T02:17:17;12.95;74.58
65824;SHT31;52585;47.566;19.056;2023-04-29T02:19:43;12.93;74.18
65824;SHT31;52585;47.566;19.056;2023-04-29T02:22:10;12.91;74.42
65824;SHT31;52585;47.566;19.056;2023-04-29T02:24:37;12.91;74.85
65824;SHT31;52585;47.566;19.056;2023-04-29T02:27:03;12.92;74.99
65824;SHT31;52585;47.566;19.056;2023-04-29T02:29:32;12.92;74.92
65824;SHT31;52585;47.566;19.056;2023-04-29T02:31:58;12.93;74.98
65824;SHT31;52585;47.566;19.056;2023-04-29T02:34:24;12.93;74.82
65824;SHT31;52585;47.566;19.056;2023-04-29T02:36:50;12.94;74.99
65824;SHT31;52585;47.566;19.056;2023-04-29T02:39:16;12.94;74.95
65824;SHT31;52585;47.566;19.056;2023-04-29T02:41:42;12.94;75.10
65824;SHT31;52585;47.566;19.056;2023-04-29T02:44:08;12.95;74.96
65824;SHT31;52585;47.566;19.056;2023-04-29T02:46:34;12.96;74.91
65824;SHT31;52585;47.566;19.056;2023-04-29T02:49:00;12.97;74.55
65824;SHT31;52585;47.566;19.056;2023-04-29T02:51:27;12.96;74.52
65824;SHT31;52585;47.566;19.056;2023-04-29T02:53:54;12.94;74.18
65824;SHT31;52585;47.566;19.056;2023-04-29T02:56:20;12.90;74.17
65824;SHT31;52585;47.566;19.056;2023-04-29T02:58:47;12.88;73.87
65824;SHT31;52585;47.566;19.056;2023-04-29T03:01:13;12.87;73.75
65824;SHT31;52585;47.566;19.056;2023-04-29T03:03:39;12.86;73.68
65824;SHT31;52585;47.566;19.056;2023-04-29T03:06:05;12.89;74.12
65824;SHT31;52585;47.566;19.056;2023-04-29T03:08:31;12.89;74.26
65824;SHT31;52585;47.566;19.056;2023-04-29T03:10:57;12.91;74.08
65824;SHT31;52585;47.566;19.056;2023-04-29T03:13:23;12.92;74.00
65824;SHT31;52585;47.566;19.056;2023-04-29T03:15:49;12.94;73.96
65824;SHT31;52585;47.566;19.056;2023-04-29T03:18:15;12.93;73.71
65824;SHT31;52585;47.566;19.056;2023-04-29T03:20:41;12.89;74.09
65824;SHT31;52585;47.566;19.056;2023-04-29T03:23:07;12.88;74.37
65824;SHT31;52585;47.566;19.056;2023-04-29T03:25:32;12.89;73.95
65824;SHT31;52585;47.566;19.056;2023-04-29T03:27:59;12.90;73.32
65824;SHT31;52585;47.566;19.056;2023-04-29T03:30:25;12.89;73.13
65824;SHT31;52585;47.566;19.056;2023-04-29T03:32:51;12.89;73.20
65824;SHT31;52585;47.566;19.056;2023-04-29T03:35:17;12.85;72.91
65824;SHT31;52585;47.566;19.056;2023-04-29T03:37:43;12.79;73.31
65824;SHT31;52585;47.566;19.056;2023-04-29T03:40:09;12.75;73.34
65824;SHT31;52585;47.566;19.056;2023-04-29T03:42:36;12.73;73.43
65824;SHT31;52585;47.566;19.056;2023-04-29T03:45:02;12.72;73.37
65824;SHT31;52585;47.566;19.056;2023-04-29T03:47:31;12.74;73.68
65824;SHT31;52585;47.566;19.056;2023-04-29T03:49:57;12.75;73.70
65824;SHT31;52585;47.566;19.056;2023-04-29T03:52:23;12.76;73.74
65824;SHT31;52585;47.566;19.056;2023-04-29T03:54:49;12.76;73.92
65824;SHT31;52585;47.566;19.056;2023-04-29T03:57:16;12.77;73.95
65824;SHT31;52585;47.566;19.056;2023-04-29T03:59:43;12.75;73.49
65824;SHT31;52585;47.566;19.056;2023-04-29T04:02:14;12.70;73.27
65824;SHT31;52585;47.566;19.056;2023-04-29T04:04:41;12.69;73.12
65824;SHT31;52585;47.566;19.056;2023-04-29T04:07:07;12.71;73.03
65824;SHT31;52585;47.566;19.056;2023-04-29T04:09:33;12.73;72.83
65824;SHT31;52585;47.566;19.056;2023-04-29T04:11:59;12.73;72.52
65824;SHT31;52585;47.566;19.056;2023-04-29T04:14:25;12.72;72.43
65824;SHT31;52585;47.566;19.056;2023-04-29T04:16:51;12.71;72.60
65824;SHT31;52585;47.566;19.056;2023-04-29T04:19:18;12.69;72.45
65824;SHT31;52585;47.566;19.056;2023-04-29T04:21:45;12.66;72.78
65824;SHT31;52585;47.566;19.056;2023-04-29T04:24:11;12.61;72.78
65824;SHT31;52585;47.566;19.056;2023-04-29T04:26:36;12.59;72.83
65824;SHT31;52585;47.566;19.056;2023-04-29T04:29:02;12.58;72.39
65824;SHT31;52585;47.566;19.056;2023-04-29T04:31:29;12.58;72.48
65824;SHT31;52585;47.566;19.056;2023-04-29T04:33:55;12.60;72.17
65824;SHT31;52585;47.566;19.056;2023-04-29T04:36:23;12.61;72.23
65824;SHT31;52585;47.566;19.056;2023-04-29T04:38:49;12.61;72.44
65824;SHT31;52585;47.566;19.056;2023-04-29T04:41:15;12.59;72.31
65824;SHT31;52585;47.566;19.056;2023-04-29T04:43:41;12.53;72.45
65824;SHT31;52585;47.566;19.056;2023-04-29T04:46:14;12.51;72.47
65824;SHT31;52585;47.566;19.056;2023-04-29T04:48:42;12.51;71.61
65824;SHT31;52585;47.566;19.056;2023-04-29T04:51:13;12.52;71.61
65824;SHT31;52585;47.566;19.056;2023-04-29T04:53:39;12.49;71.44
65824;SHT31;52585;47.566;19.056;2023-04-29T04:56:05;12.45;71.44
65824;SHT31;52585;47.566;19.056;2023-04-29T04:58:32;12.44;71.05
65824;SHT31;52585;47.566;19.056;2023-04-29T05:00:58;12.40;70.73
65824;SHT31;52585;47.566;19.056;2023-04-29T05:03:25;12.39;70.43
65824;SHT31;52585;47.566;19.056;2023-04-29T05:05:52;12.39;70.28
65824;SHT31;52585;47.566;19.056;2023-04-29T05:08:27;12.37;70.26
65824;SHT31;52585;47.566;19.056;2023-04-29T05:10:53;12.37;70.11
65824;SHT31;52585;47.566;19.056;2023-04-29T05:13:19;12.39;69.68
65824;SHT31;52585;47.566;19.056;2023-04-29T05:15:45;12.44;69.22
65824;SHT31;52585;47.566;19.056;2023-04-29T05:18:11;12.47;69.07
65824;SHT31;52585;47.566;19.056;2023-04-29T05:20:37;12.51;69.31
65824;SHT31;52585;47.566;19.056;2023-04-29T05:23:03;12.53;68.73
65824;SHT31;52585;47.566;19.056;2023-04-29T05:25:29;12.52;68.42
65824;SHT31;52585;47.566;19.056;2023-04-29T05:27:55;12.53;68.50
65824;SHT31;52585;47.566;19.056;2023-04-29T05:30:22;12.52;68.44
65824;SHT31;52585;47.566;19.056;2023-04-29T05:32:48;12.54;68.25
65824;SHT31;52585;47.566;19.056;2023-04-29T05:35:14;12.55;68.32
65824;SHT31;52585;47.566;19.056;2023-04-29T05:37:40;12.54;68.13
65824;SHT31;52585;47.566;19.056;2023-04-29T05:40:06;12.55;68.57
65824;SHT31;52585;47.566;19.056;2023-04-29T05:42:34;12.56;68.72
65824;SHT31;52585;47.566;19.056;2023-04-29T05:45:00;12.56;68.42
65824;SHT31;52585;47.566;19.056;2023-04-29T05:47:26;12.57;68.31
65824;SHT31;52585;47.566;19.056;2023-04-29T05:49:53;12.56;67.19
65824;SHT31;52585;47.566;19.056;2023-04-29T05:52:19;12.58;67.52
65824;SHT31;52585;47.566;19.056;2023-04-29T05:54:45;12.60;67.26
65824;SHT31;52585;47.566;19.056;2023-04-29T05:57:11;12.61;67.10
65824;SHT31;52585;47.566;19.056;2023-04-29T05:59:37;12.60;66.82
65824;SHT31;52585;47.566;19.056;2023-04-29T06:02:03;12.59;66.73
65824;SHT31;52585;47.566;19.056;2023-04-29T06:04:29;12.59;66.32
65824;SHT31;52585;47.566;19.056;2023-04-29T06:06:56;12.59;66.01
65824;SHT31;52585;47.566;19.056;2023-04-29T06:09:22;12.60;65.68
65824;SHT31;52585;47.566;19.056;2023-04-29T06:11:50;12.61;65.74
65824;SHT31;52585;47.566;19.056;2023-04-29T06:14:17;12.62;66.00
65824;SHT31;52585;47.566;19.056;2023-04-29T06:16:44;12.63;65.78
65824;SHT31;52585;47.566;19.056;2023-04-29T06:19:11;12.62;66.30
65824;SHT31;52585;47.566;19.056;2023-04-29T06:21:37;12.58;66.07
65824;SHT31;52585;47.566;19.056;2023-04-29T06:24:03;12.54;66.38
65824;SHT31;52585;47.566;19.056;2023-04-29T06:26:29;12.48;66.31
65824;SHT31;52585;47.566;19.056;2023-04-29T06:28:55;12.45;66.08
65824;SHT31;52585;47.566;19.056;2023-04-29T06:31:21;12.45;65.69
65824;SHT31;52585;47.566;19.056;2023-04-29T06:33:47;12.48;66.14
65824;SHT31;52585;47.566;19.056;2023-04-29T06:36:13;12.52;65.99
65824;SHT31;52585;47.566;19.056;2023-04-29T06:38:39;12.56;65.72
65824;SHT31;52585;47.566;19.056;2023-04-29T06:41:05;12.56;65.75
65824;SHT31;52585;47.566;19.056;2023-04-29T06:43:31;12.57;65.26
65824;SHT31;52585;47.566;19.056;2023-04-29T06:45:57;12.57;64.95
65824;SHT31;52585;47.566;19.056;2023-04-29T06:48:24;12.59;64.80
65824;SHT31;52585;47.566;19.056;2023-04-29T06:50:54;12.61;64.99
65824;SHT31;52585;47.566;19.056;2023-04-29T06:53:23;12.62;64.68
65824;SHT31;52585;47.566;19.056;2023-04-29T06:55:50;12.64;64.58
65824;SHT31;52585;47.566;19.056;2023-04-29T06:58:16;12.63;64.66
65824;SHT31;52585;47.566;19.056;2023-04-29T07:00:43;12.64;64.82
65824;SHT31;52585;47.566;19.056;2023-04-29T07:03:15;12.63;64.65
65824;SHT31;52585;47.566;19.056;2023-04-29T07:05:43;12.61;64.56
65824;SHT31;52585;47.566;19.056;2023-04-29T07:08:10;12.60;64.65
65824;SHT31;52585;47.566;19.056;2023-04-29T07:10:37;12.63;64.78
65824;SHT31;52585;47.566;19.056;2023-04-29T07:13:06;12.64;64.17
65824;SHT31;52585;47.566;19.056;2023-04-29T07:15:32;12.66;64.24
65824;SHT31;52585;47.566;19.056;2023-04-29T07:18:02;12.66;64.08
65824;SHT31;52585;47.566;19.056;2023-04-29T07:20:29;12.68;64.05
65824;SHT31;52585;47.566;19.056;2023-04-29T07:22:56;12.70;64.11
65824;SHT31;52585;47.566;19.056;2023-04-29T07:25:22;12.71;64.12
65824;SHT31;52585;47.566;19.056;2023-04-29T07:27:48;12.71;64.14
65824;SHT31;52585;47.566;19.056;2023-04-29T07:30:14;12.71;64.33
65824;SHT31;52585;47.566;19.056;2023-04-29T07:32:40;12.72;64.79
65824;SHT31;52585;47.566;19.056;2023-04-29T07:35:06;12.74;64.57
65824;SHT31;52585;47.566;19.056;2023-04-29T07:37:33;12.76;64.68
65824;SHT31;52585;47.566;19.056;2023-04-29T07:40:00;12.79;64.04
65824;SHT31;52585;47.566;19.056;2023-04-29T07:42:26;12.83;64.60
65824;SHT31;52585;47.566;19.056;2023-04-29T07:44:52;12.85;64.48
65824;SHT31;52585;47.566;19.056;2023-04-29T07:47:20;12.89;64.71
65824;SHT31;52585;47.566;19.056;2023-04-29T07:49:46;12.91;64.49
65824;SHT31;52585;47.566;19.056;2023-04-29T07:52:12;12.94;64.65
65824;SHT31;52585;47.566;19.056;2023-04-29T07:54:38;12.98;64.51
65824;SHT31;52585;47.566;19.056;2023-04-29T07:57:04;13.02;64.43
65824;SHT31;52585;47.566;19.056;2023-04-29T07:59:30;13.06;64.37
65824;SHT31;52585;47.566;19.056;2023-04-29T08:01:56;13.09;64.21
65824;SHT31;52585;47.566;19.056;2023-04-29T08:04:22;13.11;63.88
65824;SHT31;52585;47.566;19.056;2023-04-29T08:06:50;13.14;63.41
65824;SHT31;52585;47.566;19.056;2023-04-29T08:09:16;13.18;63.60
65824;SHT31;52585;47.566;19.056;2023-04-29T08:11:42;13.21;63.31
65824;SHT31;52585;47.566;19.056;2023-04-29T08:14:08;13.23;63.20
65824;SHT31;52585;47.566;19.056;2023-04-29T08:16:35;13.24;62.51
65824;SHT31;52585;47.566;19.056;2023-04-29T08:19:01;13.27;62.55
65824;SHT31;52585;47.566;19.056;2023-04-29T08:21:27;13.31;62.36
65824;SHT31;52585;47.566;19.056;2023-04-29T08:23:56;13.35;62.55
65824;SHT31;52585;47.566;19.056;2023-04-29T08:26:23;13.40;62.28
65824;SHT31;52585;47.566;19.056;2023-04-29T08:28:50;13.43;62.10
65824;SHT31;52585;47.566;19.056;2023-04-29T08:31:19;13.46;62.11
65824;SHT31;52585;47.566;19.056;2023-04-29T08:33:47;13.49;61.22
65824;SHT31;52585;47.566;19.056;2023-04-29T08:36:13;13.51;61.48
65824;SHT31;52585;47.566;19.056;2023-04-29T08:38:39;13.52;61.22
65824;SHT31;52585;47.566;19.056;2023-04-29T08:41:08;13.55;61.22
65824;SHT31;52585;47.566;19.056;2023-04-29T08:43:36;13.56;61.21
65824;SHT31;52585;47.566;19.056;2023-04-29T08:46:04;13.60;61.25
65824;SHT31;52585;47.566;19.056;2023-04-29T08:48:33;13.63;61.31
65824;SHT31;52585;47.566;19.056;2023-04-29T08:51:01;13.65;60.98
65824;SHT31;52585;47.566;19.056;2023-04-29T08:53:28;13.66;60.46
65824;SHT31;52585;47.566;19.056;2023-04-29T08:55:54;13.69;60.49
65824;SHT31;52585;47.566;19.056;2023-04-29T08:58:25;13.71;60.65
65824;SHT31;52585;47.566;19.056;2023-04-29T09:00:54;13.74;60.66
65824;SHT31;52585;47.566;19.056;2023-04-29T09:03:29;13.77;60.66
65824;SHT31;52585;47.566;19.056;2023-04-29T09:06:08;13.80;60.69
65824;SHT31;52585;47.566;19.056;2023-04-29T09:08:36;13.81;60.60
65824;SHT31;52585;47.566;19.056;2023-04-29T09:11:04;13.85;60.65
65824;SHT31;52585;47.566;19.056;2023-04-29T09:13:37;13.87;60.67
65824;SHT31;52585;47.566;19.056;2023-04-29T09:16:03;13.88;60.65
65824;SHT31;52585;47.566;19.056;2023-04-29T09:18:44;13.91;60.69
65824;SHT31;52585;47.566;19.056;2023-04-29T09:21:15;13.94;60.81
65824;SHT31;52585;47.566;19.056;2023-04-29T09:23:46;13.97;60.83
65824;SHT31;52585;47.566;19.056;2023-04-29T09:26:15;14.00;60.74
65824;SHT31;52585;47.566;19.056;2023-04-29T09:28:41;14.02;60.52
65824;SHT31;52585;47.566;19.056;2023-04-29T09:31:12;14.05;60.50
65824;SHT31;52585;47.566;19.056;2023-04-29T09:33:58;14.08;60.46
65824;SHT31;52585;47.566;19.056;2023-04-29T09:36:37;14.10;60.51
65824;SHT31;52585;47.566;19.056;2023-04-29T09:44:17;14.17;60.43
65824;SHT31;52585;47.566;19.056;2023-04-29T09:46:59;14.21;60.43
65824;SHT31;52585;47.566;19.056;2023-04-29T09:52:05;14.25;60.03
65824;SHT31;52585;47.566;19.056;2023-04-29T09:54:37;14.27;59.93
65824;SHT31;52585;47.566;19.056;2023-04-29T09:57:06;14.30;59.92
65824;SHT31;52585;47.566;19.056;2023-04-29T09:59:35;14.35;59.68
65824;SHT31;52585;47.566;19.056;2023-04-29T10:04:43;14.41;59.33
65824;SHT31;52585;47.566;19.056;2023-04-29T10:07:13;14.45;58.96
65824;SHT31;52585;47.566;19.056;2023-04-29T10:09:43;14.49;58.63
65824;SHT31;52585;47.566;19.056;2023-04-29T10:12:13;14.51;58.56
65824;SHT31;52585;47.566;19.056;2023-04-29T10:14:44;14.54;58.36
65824;SHT31;52585;47.566;19.056;2023-04-29T10:18:09;14.59;57.83
65824;SHT31;52585;47.566;19.056;2023-04-29T10:21:05;14.61;57.48
65824;SHT31;52585;47.566;19.056;2023-04-29T10:23:36;14.65;57.23
65824;SHT31;52585;47.566;19.056;2023-04-29T10:26:03;14.68;56.99
65824;SHT31;52585;47.566;19.056;2023-04-29T10:28:32;14.70;56.95
65824;SHT31;52585;47.566;19.056;2023-04-29T10:31:01;14.72;56.44
65824;SHT31;52585;47.566;19.056;2023-04-29T10:33:31;14.74;56.49
65824;SHT31;52585;47.566;19.056;2023-04-29T10:35:59;14.77;56.18
65824;SHT31;52585;47.566;19.056;2023-04-29T10:41:09;14.83;56.06
65824;SHT31;52585;47.566;19.056;2023-04-29T10:43:49;14.87;55.43
65824;SHT31;52585;47.566;19.056;2023-04-29T10:46:22;14.93;55.80
65824;SHT31;52585;47.566;19.056;2023-04-29T10:48:59;14.98;54.81
65824;SHT31;52585;47.566;19.056;2023-04-29T10:51:34;15.02;54.85
65824;SHT31;52585;47.566;19.056;2023-04-29T10:54:15;15.07;54.51
65824;SHT31;52585;47.566;19.056;2023-04-29T10:59:20;15.13;54.41
65824;SHT31;52585;47.566;19.056;2023-04-29T11:01:52;15.16;54.07
65824;SHT31;52585;47.566;19.056;2023-04-29T11:04:19;15.19;54.41
65824;SHT31;52585;47.566;19.056;2023-04-29T11:06:50;15.23;54.46
65824;SHT31;52585;47.566;19.056;2023-04-29T11:17:09;15.39;54.37
65824;SHT31;52585;47.566;19.056;2023-04-29T11:19:43;15.44;54.14
65824;SHT31;52585;47.566;19.056;2023-04-29T11:27:31;15.65;53.51
65824;SHT31;52585;47.566;19.056;2023-04-29T11:30:00;15.70;53.49
65824;SHT31;52585;47.566;19.056;2023-04-29T11:32:36;15.74;53.10
65824;SHT31;52585;47.566;19.056;2023-04-29T11:37:40;15.84;53.18
65824;SHT31;52585;47.566;19.056;2023-04-29T11:40:09;15.89;53.29
65824;SHT31;52585;47.566;19.056;2023-04-29T11:42:41;15.95;52.98
65824;SHT31;52585;47.566;19.056;2023-04-29T11:45:12;15.98;52.85
65824;SHT31;52585;47.566;19.056;2023-04-29T11:47:46;16.01;52.86
65824;SHT31;52585;47.566;19.056;2023-04-29T11:50:14;16.05;52.81
65824;SHT31;52585;47.566;19.056;2023-04-29T11:52:45;16.08;52.65
65824;SHT31;52585;47.566;19.056;2023-04-29T11:55:12;16.13;52.59
65824;SHT31;52585;47.566;19.056;2023-04-29T11:57:38;16.17;51.99
65824;SHT31;52585;47.566;19.056;2023-04-29T12:00:08;16.19;51.86
65824;SHT31;52585;47.566;19.056;2023-04-29T12:02:38;16.21;52.11
65824;SHT31;52585;47.566;19.056;2023-04-29T12:05:08;16.24;52.54
65824;SHT31;52585;47.566;19.056;2023-04-29T12:07:37;16.27;52.42
65824;SHT31;52585;47.566;19.056;2023-04-29T12:10:07;16.30;52.21
65824;SHT31;52585;47.566;19.056;2023-04-29T12:12:34;16.30;52.33
65824;SHT31;52585;47.566;19.056;2023-04-29T12:15:05;16.34;52.38
65824;SHT31;52585;47.566;19.056;2023-04-29T12:17:34;16.37;52.37
65824;SHT31;52585;47.566;19.056;2023-04-29T12:20:01;16.41;52.37
65824;SHT31;52585;47.566;19.056;2023-04-29T12:22:31;16.43;52.47
65824;SHT31;52585;47.566;19.056;2023-04-29T12:24:57;16.45;52.46
65824;SHT31;52585;47.566;19.056;2023-04-29T12:27:23;16.48;52.40
65824;SHT31;52585;47.566;19.056;2023-04-29T12:29:51;16.49;52.61
65824;SHT31;52585;47.566;19.056;2023-04-29T12:32:17;16.53;52.86
65824;SHT31;52585;47.566;19.056;2023-04-29T12:34:49;16.55;52.55
65824;SHT31;52585;47.566;19.056;2023-04-29T12:37:20;16.60;52.58
65824;SHT31;52585;47.566;19.056;2023-04-29T12:39:50;16.63;52.10
65824;SHT31;52585;47.566;19.056;2023-04-29T12:42:17;16.66;51.95
65824;SHT31;52585;47.566;19.056;2023-04-29T12:44:46;16.70;52.30
65824;SHT31;52585;47.566;19.056;2023-04-29T12:47:13;16.72;52.10
65824;SHT31;52585;47.566;19.056;2023-04-29T12:49:40;16.74;51.96
65824;SHT31;52585;47.566;19.056;2023-04-29T12:52:08;16.76;52.22
65824;SHT31;52585;47.566;19.056;2023-04-29T12:54:38;16.77;52.35
65824;SHT31;52585;47.566;19.056;2023-04-29T12:57:07;16.77;52.14
65824;SHT31;52585;47.566;19.056;2023-04-29T12:59:35;16.79;52.34
65824;SHT31;52585;47.566;19.056;2023-04-29T13:02:01;16.80;52.29
65824;SHT31;52585;47.566;19.056;2023-04-29T13:04:27;16.82;52.27
65824;SHT31;52585;47.566;19.056;2023-04-29T13:06:55;16.83;52.38
65824;SHT31;52585;47.566;19.056;2023-04-29T13:09:27;16.86;52.44
65824;SHT31;52585;47.566;19.056;2023-04-29T13:11:53;16.87;52.54
65824;SHT31;52585;47.566;19.056;2023-04-29T13:14:19;16.89;52.64
65824;SHT31;52585;47.566;19.056;2023-04-29T13:16:45;16.90;52.65
65824;SHT31;52585;47.566;19.056;2023-04-29T13:19:11;16.91;52.61
65824;SHT31;52585;47.566;19.056;2023-04-29T13:21:37;16.92;52.48
65824;SHT31;52585;47.566;19.056;2023-04-29T13:24:03;16.93;52.36
65824;SHT31;52585;47.566;19.056;2023-04-29T13:26:30;16.95;52.32
65824;SHT31;52585;47.566;19.056;2023-04-29T13:28:56;16.94;51.98
65824;SHT31;52585;47.566;19.056;2023-04-29T13:31:21;16.96;51.96
65824;SHT31;52585;47.566;19.056;2023-04-29T13:33:47;16.97;52.10
65824;SHT31;52585;47.566;19.056;2023-04-29T13:36:13;16.98;52.09
65824;SHT31;52585;47.566;19.056;2023-04-29T13:38:39;16.99;52.19
65824;SHT31;52585;47.566;19.056;2023-04-29T13:41:05;16.99;52.13
65824;SHT31;52585;47.566;19.056;2023-04-29T13:43:32;17.02;52.22
65824;SHT31;52585;47.566;19.056;2023-04-29T13:45:58;17.05;52.10
65824;SHT31;52585;47.566;19.056;2023-04-29T13:48:25;17.09;52.16
65824;SHT31;52585;47.566;19.056;2023-04-29T13:50:51;17.11;51.78
65824;SHT31;52585;47.566;19.056;2023-04-29T13:53:17;17.12;51.66
65824;SHT31;52585;47.566;19.056;2023-04-29T13:55:43;17.13;51.73
65824;SHT31;52585;47.566;19.056;2023-04-29T13:58:09;17.14;51.80
65824;SHT31;52585;47.566;19.056;2023-04-29T14:00:35;17.15;51.91
65824;SHT31;52585;47.566;19.056;2023-04-29T14:03:01;17.16;52.18
65824;SHT31;52585;47.566;19.056;2023-04-29T14:05:27;17.16;52.17
65824;SHT31;52585;47.566;19.056;2023-04-29T14:07:53;17.16;52.14
65824;SHT31;52585;47.566;19.056;2023-04-29T14:10:19;17.16;52.11
65824;SHT31;52585;47.566;19.056;2023-04-29T14:12:45;17.17;52.16
65824;SHT31;52585;47.566;19.056;2023-04-29T14:15:12;17.18;52.21
65824;SHT31;52585;47.566;19.056;2023-04-29T14:17:39;17.19;52.29
65824;SHT31;52585;47.566;19.056;2023-04-29T14:20:05;17.20;52.21
65824;SHT31;52585;47.566;19.056;2023-04-29T14:22:32;17.22;52.02
65824;SHT31;52585;47.566;19.056;2023-04-29T14:24:58;17.24;52.11
65824;SHT31;52585;47.566;19.056;2023-04-29T14:27:24;17.25;52.14
65824;SHT31;52585;47.566;19.056;2023-04-29T14:29:50;17.26;52.19
65824;SHT31;52585;47.566;19.056;2023-04-29T14:32:16;17.28;52.22
65824;SHT31;52585;47.566;19.056;2023-04-29T14:34:42;17.29;52.36
65824;SHT31;52585;47.566;19.056;2023-04-29T14:37:08;17.30;52.34
65824;SHT31;52585;47.566;19.056;2023-04-29T14:39:34;17.31;52.48
65824;SHT31;52585;47.566;19.056;2023-04-29T14:43:34;17.29;52.68
65824;SHT31;52585;47.566;19.056;2023-04-29T14:46:02;17.32;52.65
65824;SHT31;52585;47.566;19.056;2023-04-29T15:00:56;17.26;53.03
65824;SHT31;52585;47.566;19.056;2023-04-29T15:03:22;17.33;56.84
65824;SHT31;52585;47.566;19.056;2023-04-29T15:05:49;17.39;56.80
65824;SHT31;52585;47.566;19.056;2023-04-29T15:08:15;17.44;57.86
65824;SHT31;52585;47.566;19.056;2023-04-29T15:10:42;17.49;57.17
65824;SHT31;52585;47.566;19.056;2023-04-29T15:13:10;17.52;56.76
65824;SHT31;52585;47.566;19.056;2023-04-29T15:15:38;17.56;55.99
65824;SHT31;52585;47.566;19.056;2023-04-29T15:18:04;17.60;55.25
65824;SHT31;52585;47.566;19.056;2023-04-29T15:20:33;17.62;55.89
65824;SHT31;52585;47.566;19.056;2023-04-29T15:23:02;17.64;55.44
65824;SHT31;52585;47.566;19.056;2023-04-29T15:25:29;17.66;55.34
65824;SHT31;52585;47.566;19.056;2023-04-29T15:27:59;17.67;55.02
65824;SHT31;52585;47.566;19.056;2023-04-29T15:30:28;17.67;54.59
65824;SHT31;52585;47.566;19.056;2023-04-29T15:32:54;17.68;54.26
65824;SHT31;52585;47.566;19.056;2023-04-29T15:35:21;17.68;54.49
65824;SHT31;52585;47.566;19.056;2023-04-29T15:37:47;17.68;54.12
65824;SHT31;52585;47.566;19.056;2023-04-29T15:40:13;17.68;54.09
65824;SHT31;52585;47.566;19.056;2023-04-29T15:42:41;17.67;53.80
65824;SHT31;52585;47.566;19.056;2023-04-29T15:45:07;17.67;53.84
65824;SHT31;52585;47.566;19.056;2023-04-29T15:47:34;17.67;53.80
65824;SHT31;52585;47.566;19.056;2023-04-29T15:50:00;17.68;53.74
65824;SHT31;52585;47.566;19.056;2023-04-29T15:52:26;17.68;53.99
65824;SHT31;52585;47.566;19.056;2023-04-29T15:54:52;17.69;54.04
65824;SHT31;52585;47.566;19.056;2023-04-29T15:57:18;17.70;54.01
65824;SHT31;52585;47.566;19.056;2023-04-29T15:59:44;17.70;54.00
65824;SHT31;52585;47.566;19.056;2023-04-29T16:02:10;17.70;53.74
65824;SHT31;52585;47.566;19.056;2023-04-29T16:04:36;17.69;53.84
65824;SHT31;52585;47.566;19.056;2023-04-29T16:07:03;17.68;53.50
65824;SHT31;52585;47.566;19.056;2023-04-29T16:09:31;17.66;53.52